Time;durP1;ratioP1;P1;durP2;ratioP2;P2;SDS_P1;SDS_P2;PMS_P1;PMS_P2;Temp;Humidity;BMP_temperature;BMP_pressure;BME280_temperature;BME280_humidity;BME280_pressure;Samples;Min_cycle;Max_cycle;Signal;HPM_P1;HPM_P2
2023/10/09 00:01:25;;;;;;;33.78;21.73;;;;;;;12.45;100.00;102041.47;5033690;28;20097;-76
2023/10/09 00:03:53;;;;;;;32.60;21.52;;;;;;;12.46;100.00;102042.31;5047444;28;20037;-76
2023/10/09 00:06:42;;;;;;;31.02;21.02;;;;;;;12.52;100.00;102047.47;5033645;28;20056;-79
2023/10/09 00:11:48;;;;;;;35.22;21.83;;;;;;;12.60;100.00;102036.06;5030017;28;20507;-75
2023/10/09 00:14:15;;;;;;;33.22;21.13;;;;;;;12.64;100.00;102032.50;5009073;28;20034;-75
2023/10/09 00:16:56;;;;;;;36.20;21.45;;;;;;;12.65;100.00;102021.16;5019823;28;20080;-75
2023/10/09 00:19:30;;;;;;;33.97;21.30;;;;;;;12.69;100.00;102019.38;5009600;28;20042;-75
2023/10/09 00:21:58;;;;;;;30.27;21.52;;;;;;;12.79;100.00;102005.28;5022089;28;20038;-75
2023/10/09 00:24:24;;;;;;;33.13;21.73;;;;;;;12.76;100.00;101994.84;5015824;28;20029;-75
2023/10/09 00:27:01;;;;;;;30.33;20.73;;;;;;;12.86;100.00;102021.75;5011864;28;20489;-75
2023/10/09 00:29:34;;;;;;;34.85;22.08;;;;;;;12.86;100.00;102012.16;5012131;28;20136;-75
2023/10/09 00:32:13;;;;;;;37.20;21.85;;;;;;;12.92;100.00;102019.06;5031377;28;20026;-75
2023/10/09 00:34:42;;;;;;;30.88;20.92;;;;;;;12.92;100.00;102008.59;5028071;28;20107;-75
2023/10/09 00:37:16;;;;;;;34.72;21.98;;;;;;;12.99;100.00;101998.88;5021737;28;20037;-75
2023/10/09 00:39:48;;;;;;;32.63;21.35;;;;;;;13.01;100.00;101994.47;5002880;28;20025;-75
2023/10/09 00:42:22;;;;;;;33.17;21.98;;;;;;;13.04;100.00;101992.66;5017464;28;20029;-75
2023/10/09 00:44:48;;;;;;;36.22;21.63;;;;;;;13.07;100.00;101984.78;5014269;28;20560;-75
2023/10/09 00:47:22;;;;;;;31.35;22.13;;;;;;;13.13;100.00;101996.91;5018025;28;20070;-75
2023/10/09 00:50:10;;;;;;;35.05;21.95;;;;;;;13.14;100.00;101990.78;5009565;28;20034;-75
2023/10/09 00:52:39;;;;;;;32.50;21.42;;;;;;;13.18;100.00;101982.00;5024636;28;20038;-75
2023/10/09 00:55:13;;;;;;;36.85;23.63;;;;;;;13.20;100.00;101993.31;5049338;28;20029;-75
2023/10/09 00:57:41;;;;;;;36.25;21.65;;;;;;;13.19;100.00;101988.97;5011480;28;20038;-75
2023/10/09 01:00:23;;;;;;;36.80;22.65;;;;;;;13.22;100.00;101999.38;5016161;28;20022;-75
2023/10/09 01:03:10;;;;;;;33.38;21.67;;;;;;;13.22;100.00;102007.25;5024336;28;20033;-75
2023/10/09 01:05:36;;;;;;;32.00;22.20;;;;;;;13.24;100.00;101995.03;5016768;28;20038;-75
2023/10/09 01:08:04;;;;;;;35.97;22.95;;;;;;;13.28;100.00;101988.84;5024187;28;20022;-75
2023/10/09 01:10:50;;;;;;;33.55;21.48;;;;;;;13.27;100.00;101987.09;5032870;28;20049;-75
2023/10/09 01:13:18;;;;;;;36.83;21.90;;;;;;;13.31;100.00;101993.19;5039171;28;20033;-75
2023/10/09 01:15:44;;;;;;;36.45;22.42;;;;;;;13.30;100.00;101996.66;5010155;28;20037;-76
2023/10/09 01:18:09;;;;;;;33.10;22.17;;;;;;;13.32;100.00;101985.28;5013603;28;20773;-76
2023/10/09 01:20:41;;;;;;;36.05;23.23;;;;;;;13.33;100.00;101996.63;5007952;28;20121;-75
2023/10/09 01:23:09;;;;;;;33.60;21.05;;;;;;;13.31;100.00;101994.03;5017079;28;20018;-76
2023/10/09 01:25:43;;;;;;;35.88;22.35;;;;;;;13.34;100.00;101983.50;5024354;28;20374;-76
2023/10/09 01:28:08;;;;;;;34.35;20.88;;;;;;;13.31;100.00;101988.81;5009061;28;20341;-76
2023/10/09 01:30:34;;;;;;;29.50;21.88;;;;;;;13.33;100.00;101997.47;5012299;28;20037;-76
2023/10/09 01:33:11;;;;;;;31.38;21.00;;;;;;;13.33;100.00;102001.84;5014223;28;20042;-76
2023/10/09 01:35:46;;;;;;;30.75;21.63;;;;;;;13.32;100.00;101994.91;5008520;28;20025;-76
2023/10/09 01:38:14;;;;;;;32.75;21.10;;;;;;;13.33;100.00;102010.56;5008486;28;20022;-75
2023/10/09 01:40:39;;;;;;;31.25;19.95;;;;;;;13.33;100.00;102007.94;5000454;28;20388;-75
2023/10/09 01:43:05;;;;;;;30.70;20.58;;;;;;;13.30;100.00;102000.16;5031502;28;20018;-76
2023/10/09 01:45:41;;;;;;;32.42;20.95;;;;;;;13.32;100.00;102001.00;5023939;28;20385;-76
2023/10/09 01:48:08;;;;;;;32.47;20.38;;;;;;;13.32;100.00;101994.91;5035846;28;20022;-76
2023/10/09 01:50:35;;;;;;;30.40;20.77;;;;;;;13.24;100.00;101984.56;5013585;28;20030;-76
2023/10/09 01:53:05;;;;;;;29.33;19.83;;;;;;;13.32;100.00;101994.91;5029903;28;20364;-76
2023/10/09 01:58:05;;;;;;;30.05;20.05;;;;;;;13.26;100.00;101988.00;5033871;28;20100;-77
2023/10/09 02:00:35;;;;;;;33.45;20.00;;;;;;;13.31;100.00;101996.66;5012390;28;20063;-76
2023/10/09 02:03:05;;;;;;;31.38;19.50;;;;;;;13.32;100.00;101989.66;5002879;28;20025;-77
2023/10/09 02:05:33;;;;;;;29.17;19.60;;;;;;;13.32;100.00;101987.91;5024964;28;20041;-76
2023/10/09 02:08:03;;;;;;;31.30;19.73;;;;;;;13.30;100.00;101987.06;5020120;28;20071;-76
2023/10/09 02:12:59;;;;;;;33.75;20.08;;;;;;;13.33;100.00;101987.00;5027417;28;20029;-76
2023/10/09 02:18:17;;;;;;;31.05;19.77;;;;;;;13.31;100.00;101988.81;5009987;28;20175;-76
2023/10/09 02:20:45;;;;;;;33.05;19.80;;;;;;;13.35;100.00;101985.25;5016476;28;20033;-76
2023/10/09 02:23:13;;;;;;;28.48;19.40;;;;;;;13.35;100.00;101974.75;5016346;28;20030;-76
2023/10/09 02:25:53;;;;;;;31.80;19.48;;;;;;;13.37;100.00;101982.56;5012325;28;20492;-76
2023/10/09 02:28:18;;;;;;;32.20;20.17;;;;;;;13.38;100.00;101983.47;5017217;28;20049;-76
2023/10/09 02:30:47;;;;;;;30.17;19.88;;;;;;;13.39;100.00;101990.44;5011408;28;20034;-77
2023/10/09 02:33:27;;;;;;;26.45;19.55;;;;;;;13.39;100.00;101978.19;5011343;28;20022;-76
2023/10/09 02:35:54;;;;;;;29.88;19.73;;;;;;;13.40;100.00;101965.94;5033830;28;20072;-76
2023/10/09 02:38:22;;;;;;;30.52;19.02;;;;;;;13.39;100.00;101961.63;5009281;28;20022;-76
2023/10/09 02:43:44;;;;;;;27.20;19.40;;;;;;;13.38;100.00;101959.91;5012368;28;20393;-77
2023/10/09 02:46:19;;;;;;;26.90;18.27;;;;;;;13.37;100.00;101953.75;5005713;28;20038;-76
2023/10/09 02:48:52;;;;;;;26.50;18.23;;;;;;;13.37;100.00;101939.81;5000193;28;20073;-76
2023/10/09 02:53:53;;;;;;;29.50;19.05;;;;;;;13.36;100.00;101949.44;5013532;28;20039;-77
2023/10/09 02:56:24;;;;;;;25.60;18.30;;;;;;;13.42;100.00;101948.47;5022988;28;20401;-77
2023/10/09 02:59:05;;;;;;;28.58;19.50;;;;;;;13.40;100.00;101945.00;5022718;28;20079;-76
2023/10/09 03:01:31;;;;;;;28.45;19.13;;;;;;;13.40;100.00;101947.63;5015789;28;20032;-76
2023/10/09 03:03:59;;;;;;;30.38;20.20;;;;;;;13.41;100.00;101954.59;5043101;28;20029;-76
2023/10/09 03:06:30;;;;;;;27.40;19.17;;;;;;;13.39;100.00;101952.00;5029456;28;20116;-77
2023/10/09 03:08:56;;;;;;;31.42;19.35;;;;;;;13.38;100.00;101955.50;5022862;28;20117;-76
2023/10/09 03:11:21;;;;;;;29.92;19.25;;;;;;;13.39;100.00;101964.22;5017841;28;20112;-77
2023/10/09 03:13:47;;;;;;;26.85;19.27;;;;;;;13.35;100.00;101964.28;5018382;28;20038;-76
2023/10/09 03:16:18;;;;;;;27.58;19.17;;;;;;;13.37;100.00;101955.53;5011011;28;20026;-76
2023/10/09 03:18:46;;;;;;;27.48;19.75;;;;;;;13.32;100.00;101953.84;5010478;28;20431;-77
2023/10/09 03:21:12;;;;;;;27.33;18.75;;;;;;;13.30;100.00;101942.53;5020317;28;20026;-77
2023/10/09 03:23:38;;;;;;;31.08;20.35;;;;;;;13.33;100.00;101939.00;5010698;28;20546;-76
2023/10/09 03:26:03;;;;;;;30.33;19.77;;;;;;;13.30;100.00;101932.06;5038066;28;20034;-76
2023/10/09 03:28:29;;;;;;;31.98;19.73;;;;;;;13.29;100.00;101932.97;5026553;28;20041;-76
2023/10/09 03:30:55;;;;;;;27.30;19.58;;;;;;;13.26;100.00;101933.00;5018786;28;20103;-77
2023/10/09 03:33:20;;;;;;;29.35;20.40;;;;;;;13.27;100.00;101924.25;5021742;28;20156;-77
2023/10/09 03:35:45;;;;;;;31.50;19.92;;;;;;;13.26;100.00;101925.16;5045402;28;20231;-77
2023/10/09 03:38:17;;;;;;;32.97;20.80;;;;;;;13.25;100.00;101919.97;5024568;28;20026;-77
2023/10/09 03:40:43;;;;;;;32.33;19.80;;;;;;;13.25;100.00;101920.81;5012715;28;20026;-76
2023/10/09 03:43:13;;;;;;;27.80;19.33;;;;;;;13.23;100.00;101922.56;5013979;28;20350;-76
2023/10/09 03:45:45;;;;;;;27.10;18.92;;;;;;;13.24;100.00;101920.78;5020345;28;20075;-76
2023/10/09 03:48:26;;;;;;;26.67;19.90;;;;;;;13.22;100.00;101915.59;5026687;28;20036;-76
2023/10/09 03:51:08;;;;;;;29.85;19.30;;;;;;;13.21;100.00;101916.50;5011954;28;20025;-76
2023/10/09 03:53:36;;;;;;;28.80;19.33;;;;;;;13.19;100.00;101907.78;5027505;28;20022;-76
2023/10/09 03:56:05;;;;;;;32.38;19.90;;;;;;;13.19;100.00;101910.41;5049277;28;20398;-77
2023/10/09 03:58:33;;;;;;;28.38;20.27;;;;;;;13.22;100.00;101915.59;5021185;28;20036;-77
2023/10/09 04:00:58;;;;;;;27.50;19.30;;;;;;;13.20;100.00;101906.88;5022693;28;20029;-76
2023/10/09 04:03:24;;;;;;;27.30;18.15;;;;;;;13.20;100.00;101917.38;5012062;28;20033;-76
2023/10/09 04:05:51;;;;;;;27.55;18.00;;;;;;;13.19;100.00;101905.16;5012389;28;20118;-75
2023/10/09 04:08:19;;;;;;;34.50;19.02;;;;;;;13.21;100.00;101915.59;5023770;28;20026;-76
2023/10/09 04:10:51;;;;;;;26.27;18.23;;;;;;;13.21;100.00;101918.22;5021918;28;20389;-76
2023/10/09 04:13:22;;;;;;;26.15;18.75;;;;;;;13.21;100.00;101915.59;5024113;28;20380;-76
2023/10/09 04:15:49;;;;;;;29.15;19.08;;;;;;;13.16;100.00;101915.69;5022658;28;20036;-76
2023/10/09 04:18:15;;;;;;;25.90;19.17;;;;;;;13.18;100.00;101918.28;5042846;28;20460;-76
2023/10/09 04:23:16;;;;;;;32.60;19.85;;;;;;;13.20;100.00;101908.66;5024291;28;20267;-76
2023/10/09 04:25:45;;;;;;;31.02;20.88;;;;;;;13.20;100.00;101898.19;5007374;28;20508;-76
2023/10/09 04:28:22;;;;;;;26.15;18.73;;;;;;;13.27;100.00;101899.81;5016190;28;20042;-76
2023/10/09 04:30:53;;;;;;;30.35;19.63;;;;;;;13.26;100.00;101896.34;5012082;28;20025;-76
2023/10/09 04:33:28;;;;;;;26.75;19.23;;;;;;;13.30;100.00;101889.28;5019296;28;20022;-76
2023/10/09 04:41:51;;;;;;;30.23;20.55;;;;;;;13.33;100.00;101929.38;5016492;28;20036;-76
2023/10/09 04:44:19;;;;;;;32.72;20.35;;;;;;;13.37;100.00;101931.94;5014212;28;20049;-76
2023/10/09 04:50:01;;;;;;;32.78;20.20;;;;;;;13.37;100.00;101937.19;5015054;28;20049;-76
2023/10/09 04:55:17;;;;;;;35.65;20.13;;;;;;;13.39;100.00;101951.13;5018978;28;20117;-76
2023/10/09 05:00:46;;;;;;;27.17;19.05;;;;;;;13.38;100.00;101928.47;5045062;28;20553;-76
2023/10/09 05:03:12;;;;;;;30.05;19.40;;;;;;;13.40;100.00;101926.66;5036197;28;20048;-76
2023/10/09 05:16:18;;;;;;;33.97;19.63;;;;;;;13.35;100.00;101930.22;5014892;28;20049;-76
2023/10/09 05:18:55;;;;;;;28.02;19.30;;;;;;;13.35;100.00;101945.94;5006373;28;20038;-76
2023/10/09 05:24:42;;;;;;;29.42;19.65;;;;;;;13.42;100.00;101933.59;5018001;28;20069;-76
2023/10/09 05:29:19;;;;;;;32.67;21.35;;;;;;;13.46;100.00;101939.66;5016453;28;20034;-76
2023/10/09 05:32:15;;;;;;;30.65;20.58;;;;;;;13.45;100.00;101941.41;5032224;28;20038;-76
2023/10/09 05:37:32;;;;;;;31.55;21.33;;;;;;;13.50;100.00;101965.75;5009596;28;20077;-76
2023/10/09 05:48:02;;;;;;;30.45;19.80;;;;;;;13.46;100.00;101971.09;5020362;28;20072;-76
2023/10/09 06:03:48;;;;;;;35.22;22.00;;;;;;;13.48;100.00;101980.66;5016983;28;20397;-76
2023/10/09 06:11:48;;;;;;;38.47;22.27;;;;;;;13.56;100.00;101993.59;5020065;28;20060;-76
2023/10/09 06:14:24;;;;;;;35.00;22.70;;;;;;;13.55;100.00;101997.13;5016331;28;20026;-76
2023/10/09 06:19:43;;;;;;;34.63;22.75;;;;;;;13.58;100.00;101982.22;5012015;28;20523;-76
2023/10/09 06:24:54;;;;;;;34.03;22.38;;;;;;;13.62;100.00;101979.53;5017709;28;20388;-76
2023/10/09 06:29:52;;;;;;;36.35;23.38;;;;;;;13.60;100.00;101966.44;5008835;28;20490;-77
2023/10/09 06:38:19;;;;;;;33.83;22.90;;;;;;;13.72;100.00;101976.72;5005452;28;20084;-76
2023/10/09 06:48:55;;;;;;;37.67;24.33;;;;;;;13.87;100.00;101995.69;5018437;28;20120;-76
2023/10/09 06:58:55;;;;;;;37.22;23.83;;;;;;;13.92;100.00;101975.47;5049050;28;20469;-76
2023/10/09 07:03:54;;;;;;;36.70;23.60;;;;;;;14.04;100.00;101962.13;5019596;28;20385;-76
2023/10/09 07:06:23;;;;;;;33.67;23.45;;;;;;;14.11;100.00;101963.75;5025181;28;20026;-76
2023/10/09 07:16:58;;;;;;;36.40;22.17;;;;;;;14.38;100.00;101925.56;5021720;28;20128;-76
2023/10/09 07:24:56;;;;;;;31.27;21.55;;;;;;;14.60;100.00;101938.25;5022327;28;20117;-77
2023/10/09 07:27:44;;;;;;;37.78;23.02;;;;;;;14.60;100.00;101928.59;5017701;28;20058;-77
2023/10/09 07:32:55;;;;;;;35.10;21.90;;;;;;;14.64;100.00;101951.25;5019462;28;20053;-77
2023/10/09 07:38:08;;;;;;;31.50;21.80;;;;;;;14.56;100.00;101979.44;5010449;28;20320;-77
2023/10/09 07:43:35;;;;;;;36.17;21.90;;;;;;;14.57;100.00;102012.66;5016368;28;20040;-77
2023/10/09 07:48:38;;;;;;;28.50;21.38;;;;;;;14.57;100.00;102017.91;5021455;28;20098;-77
2023/10/09 07:51:12;;;;;;;32.08;22.27;;;;;;;14.59;100.00;102021.38;5014683;28;20026;-77
2023/10/09 07:53:44;;;;;;;32.28;21.63;;;;;;;14.63;100.00;102015.16;5026424;28;20073;-77
2023/10/09 07:56:13;;;;;;;29.08;21.17;;;;;;;14.67;100.00;101997.56;5010104;28;20522;-77
2023/10/09 07:58:48;;;;;;;36.42;22.45;;;;;;;14.69;100.00;101988.78;5023747;28;20030;-77
2023/10/09 08:01:34;;;;;;;31.77;21.45;;;;;;;14.73;100.00;101979.91;5020351;28;20021;-77
2023/10/09 08:04:20;;;;;;;33.03;21.23;;;;;;;14.78;100.00;101978.94;5007832;28;20022;-76
2023/10/09 08:06:47;;;;;;;29.55;20.65;;;;;;;14.83;100.00;101977.09;5009552;28;20053;-76
2023/10/09 08:16:47;;;;;;;34.42;22.65;;;;;;;15.14;100.00;101993.84;5004172;28;20064;-77
2023/10/09 08:22:57;;;;;;;31.50;21.95;;;;;;;15.31;100.00;101985.56;5010575;28;20079;-77
2023/10/09 08:24:57;;;;;;;31.42;22.00;;;;;;;15.42;100.00;102001.91;5020111;28;20103;-77
2023/10/09 08:30:41;;;;;;;33.97;21.75;;;;;;;15.55;100.00;101985.84;5023893;28;20045;-77
2023/10/09 08:33:39;;;;;;;34.33;23.83;;;;;;;15.76;100.00;101989.69;5013740;28;20048;-78
2023/10/09 08:35:49;;;;;;;28.52;21.15;;;;;;;15.92;100.00;101972.56;5014191;28;20178;-78
2023/10/09 08:38:21;;;;;;;29.42;22.13;;;;;;;16.04;100.00;101969.63;5008663;28;20108;-78
2023/10/09 08:40:46;;;;;;;29.85;21.17;;;;;;;16.18;100.00;101979.72;5007818;28;20105;-78
2023/10/09 08:43:16;;;;;;;31.50;21.50;;;;;;;16.22;100.00;101977.88;5013045;28;20108;-78
2023/10/09 08:46:00;;;;;;;30.30;21.45;;;;;;;16.22;100.00;101975.25;5013306;28;20040;-78
2023/10/09 08:48:27;;;;;;;28.42;21.77;;;;;;;16.13;100.00;101964.09;5007374;28;20033;-78
2023/10/09 08:50:54;;;;;;;31.48;22.02;;;;;;;16.18;100.00;101968.34;5016953;28;20060;-78
2023/10/09 08:53:20;;;;;;;34.28;22.13;;;;;;;16.21;100.00;101969.13;5027833;28;20054;-78
2023/10/09 08:55:46;;;;;;;31.90;22.23;;;;;;;16.24;100.00;101952.41;5019115;28;20055;-78
2023/10/09 08:58:24;;;;;;;29.02;20.73;;;;;;;16.40;100.00;101972.09;4999285;28;20072;-78
2023/10/09 09:00:51;;;;;;;33.13;22.45;;;;;;;16.47;100.00;101959.59;5031602;28;20042;-78
2023/10/09 09:03:18;;;;;;;36.83;23.65;;;;;;;16.51;100.00;101956.84;5013237;28;20050;-78
2023/10/09 09:05:47;;;;;;;32.60;23.05;;;;;;;16.60;100.00;101966.22;5036154;28;20025;-78
2023/10/09 09:08:24;;;;;;;31.48;23.48;;;;;;;16.72;100.00;101967.63;5015863;28;20034;-77
2023/10/09 09:13:48;;;;;;;32.40;22.25;;;;;;;16.91;100.00;101968.78;5003014;28;20086;-77
2023/10/09 09:16:29;;;;;;;30.13;21.80;;;;;;;17.04;100.00;101958.72;5014720;28;20483;-77
2023/10/09 09:19:02;;;;;;;35.53;23.23;;;;;;;17.20;100.00;101970.47;5018590;28;20033;-77
2023/10/09 09:21:29;;;;;;;32.80;22.42;;;;;;;17.34;100.00;101975.28;5011329;28;21587;-77
2023/10/09 09:23:57;;;;;;;33.83;23.40;;;;;;;17.41;100.00;101987.34;5016618;28;20129;-78
2023/10/09 09:26:37;;;;;;;30.70;23.10;;;;;;;17.54;100.00;101996.56;5014429;28;20041;-77
2023/10/09 09:29:06;;;;;;;34.88;22.90;;;;;;;17.56;100.00;102007.06;5031193;28;20023;-78
2023/10/09 09:31:37;;;;;;;36.00;21.67;;;;;;;17.62;100.00;102017.38;5018109;28;20049;-78
2023/10/09 09:34:22;;;;;;;28.42;21.77;;;;;;;17.71;100.00;102003.00;5025421;28;20033;-78
2023/10/09 09:36:56;;;;;;;31.98;22.88;;;;;;;17.82;100.00;102015.84;5042566;28;20021;-77
2023/10/09 09:39:31;;;;;;;30.10;21.98;;;;;;;17.84;100.00;102014.88;5012333;28;20488;-78
2023/10/09 09:42:03;;;;;;;29.48;20.85;;;;;;;17.94;100.00;102013.66;5022937;28;20091;-77
2023/10/09 09:44:32;;;;;;;28.77;21.20;;;;;;;18.01;100.00;102014.28;5015107;28;20025;-78
2023/10/09 09:47:01;;;;;;;28.60;20.38;;;;;;;18.05;100.00;102036.16;5039585;28;20088;-77
2023/10/09 09:49:32;;;;;;;29.17;20.70;;;;;;;18.04;100.00;102034.44;5062150;28;20034;-77
2023/10/09 09:52:01;;;;;;;29.00;20.15;;;;;;;18.04;100.00;102030.00;5018906;28;20089;-78
2023/10/09 09:54:27;;;;;;;25.73;20.58;;;;;;;18.07;100.00;102036.97;5020162;28;20036;-78
2023/10/09 09:56:54;;;;;;;28.42;20.10;;;;;;;18.08;100.00;102036.03;5011222;28;20103;-78
2023/10/09 09:59:27;;;;;;;28.95;19.95;;;;;;;18.14;100.00;102027.91;5019307;28;20029;-78
2023/10/09 10:02:06;;;;;;;25.50;19.08;;;;;;;18.22;100.00;102031.13;5021996;28;20026;-78
2023/10/09 10:04:35;;;;;;;36.17;21.50;;;;;;;18.22;100.00;102025.84;5032722;28;20158;-78
2023/10/09 10:07:09;;;;;;;30.75;20.02;;;;;;;18.28;100.00;102036.19;5012272;28;20056;-78
2023/10/09 10:09:38;;;;;;;29.98;20.33;;;;;;;18.42;100.00;102035.69;5019034;28;20481;-78
2023/10/09 10:12:09;;;;;;;26.50;19.52;;;;;;;18.54;100.00;102035.22;5020379;28;20017;-78
2023/10/09 10:14:50;;;;;;;29.02;21.60;;;;;;;18.57;100.00;102042.16;5015964;28;20052;-78
2023/10/09 10:17:18;;;;;;;31.13;20.80;;;;;;;18.65;100.00;102024.25;5016305;28;20113;-78
2023/10/09 10:22:47;;;;;;;31.67;21.67;;;;;;;18.75;100.00;102044.13;5015568;28;20501;-78
2023/10/09 10:25:35;;;;;;;28.70;20.92;;;;;;;18.81;100.00;102041.25;5041581;28;20019;-78
2023/10/09 10:28:38;;;;;;;37.30;22.55;;;;;;;18.76;100.00;102035.28;5012266;28;20450;-77
2023/10/09 10:31:07;;;;;;;29.88;20.85;;;;;;;18.78;100.00;102035.22;5006237;28;20036;-77
2023/10/09 10:33:58;;;;;;;30.63;22.10;;;;;;;18.85;100.00;102031.41;5017203;28;20418;-77
2023/10/09 10:36:26;;;;;;;32.50;23.35;;;;;;;18.80;100.00;102042.19;5012439;28;20108;-77
2023/10/09 10:39:05;;;;;;;33.30;23.05;;;;;;;18.89;100.00;102036.50;5012658;28;20109;-77
2023/10/09 10:41:36;;;;;;;29.00;23.48;;;;;;;18.94;100.00;102036.34;5009480;28;20034;-78
2023/10/09 10:44:33;;;;;;;32.95;23.33;;;;;;;19.00;100.00;102032.56;5016414;28;20029;-78
2023/10/09 10:46:52;;;;;;;33.00;23.77;;;;;;;19.08;100.00;102025.22;5043100;28;20045;-77
2023/10/09 10:49:21;;;;;;;30.67;22.42;;;;;;;19.21;100.00;102020.31;5025258;28;20422;-77
2023/10/09 10:51:49;;;;;;;31.33;23.42;;;;;;;19.27;100.00;102026.19;5039793;28;20222;-77
2023/10/09 10:57:03;;;;;;;34.53;24.05;;;;;;;19.38;100.00;102023.09;5003346;28;20046;-78
2023/10/09 10:59:39;;;;;;;36.45;23.13;;;;;;;19.49;100.00;102025.28;5036106;28;20028;-77
2023/10/09 11:04:43;;;;;;;34.78;22.23;;;;;;;19.57;100.00;102020.56;5027659;28;20555;-78
2023/10/09 11:07:09;;;;;;;28.80;23.20;;;;;;;19.64;100.00;102024.69;5002646;28;20386;-77
2023/10/09 11:12:42;;;;;;;33.30;23.05;;;;;;;19.57;100.00;102024.03;5013527;28;20111;-78
2023/10/09 11:18:16;;;;;;;29.73;22.92;;;;;;;19.60;100.00;102034.50;5026872;28;20048;-78
2023/10/09 11:20:56;;;;;;;33.70;24.02;;;;;;;19.65;100.00;102039.63;5017287;28;20038;-78
2023/10/09 11:28:49;;;;;;;30.52;23.35;;;;;;;19.96;100.00;102035.66;5027098;28;20424;-77
2023/10/09 11:31:17;;;;;;;31.33;22.92;;;;;;;19.97;100.00;102027.63;5045135;28;20025;-79
2023/10/09 11:33:51;;;;;;;32.08;21.25;;;;;;;19.86;100.00;102025.47;5029128;28;20084;-77
2023/10/09 11:36:55;;;;;;;31.50;21.65;;;;;;;19.86;100.00;102028.13;5023108;28;20442;-77
2023/10/09 11:39:31;;;;;;;32.33;21.90;;;;;;;19.91;100.00;102019.13;5013967;28;20056;-78
2023/10/09 11:42:07;;;;;;;28.85;20.95;;;;;;;20.05;100.00;102017.59;5022799;28;20101;-78
2023/10/09 11:44:44;;;;;;;29.15;18.67;;;;;;;20.28;100.00;102016.56;5012304;28;20036;-78
2023/10/09 11:54:56;;;;;;;23.27;16.00;;;;;;;20.86;100.00;102020.06;5013590;28;20030;-78
2023/10/09 11:57:30;;;;;;;20.88;15.98;;;;;;;20.93;100.00;102008.28;5027119;28;20025;-78
2023/10/09 11:59:57;;;;;;;23.67;15.27;;;;;;;20.99;100.00;102011.47;5036328;28;20083;-79
2023/10/09 12:02:22;;;;;;;18.88;14.07;;;;;;;20.92;100.00;102025.94;5015733;28;20505;-79
2023/10/09 12:04:48;;;;;;;20.33;14.57;;;;;;;20.87;100.00;102024.47;5013264;28;20029;-79
2023/10/09 12:07:14;;;;;;;22.08;14.10;;;;;;;20.80;100.00;102019.44;4999938;28;20080;-78
2023/10/09 12:09:40;;;;;;;20.90;13.90;;;;;;;20.75;100.00;102016.16;5024174;28;20029;-79
2023/10/09 12:12:07;;;;;;;20.20;13.68;;;;;;;20.73;100.00;102025.97;5013861;28;20033;-79
2023/10/09 12:14:33;;;;;;;23.60;13.65;;;;;;;20.86;100.00;102015.63;5031460;28;20090;-78
2023/10/09 12:17:06;;;;;;;19.70;11.73;;;;;;;20.88;100.00;102010.28;5035168;28;20030;-79
2023/10/09 12:19:40;;;;;;;18.83;13.65;;;;;;;20.95;100.00;102014.34;5023634;28;20037;-79
2023/10/09 12:22:10;;;;;;;18.67;12.07;;;;;;;20.84;100.00;102012.22;5014730;28;20031;-79
2023/10/09 12:24:37;;;;;;;19.73;11.70;;;;;;;20.85;100.00;102000.66;5011096;28;20022;-79
2023/10/09 12:27:04;;;;;;;20.58;12.20;;;;;;;20.87;100.00;102008.56;5022129;28;20036;-78
2023/10/09 12:29:30;;;;;;;15.98;10.77;;;;;;;20.80;100.00;101998.25;5022078;28;20041;-78
2023/10/09 12:31:58;;;;;;;19.65;11.63;;;;;;;20.81;100.00;101994.66;5026218;28;20030;-78
2023/10/09 12:34:27;;;;;;;16.27;10.95;;;;;;;20.88;100.00;102002.31;5019160;28;20366;-78
2023/10/09 12:36:53;;;;;;;16.55;10.48;;;;;;;20.83;100.00;102002.56;5015079;28;20079;-85
2023/10/09 12:39:21;;;;;;;14.90;11.00;;;;;;;20.80;100.00;102003.56;5020048;28;20089;-78
2023/10/09 12:41:46;;;;;;;15.35;10.75;;;;;;;20.78;100.00;101999.25;5026075;28;20530;-78
2023/10/09 12:44:14;;;;;;;14.10;9.65;;;;;;;20.78;100.00;101992.16;5029040;28;20034;-78
2023/10/09 12:46:41;;;;;;;18.10;10.77;;;;;;;20.76;100.00;101990.50;5045731;28;20071;-79
2023/10/09 12:49:07;;;;;;;14.68;9.65;;;;;;;20.77;100.00;101997.53;5019600;28;20090;-78
2023/10/09 12:51:32;;;;;;;14.50;9.23;;;;;;;20.83;100.00;101985.75;5017166;28;20057;-77
2023/10/09 12:53:57;;;;;;;15.25;9.95;;;;;;;20.88;100.00;101984.63;5011883;28;20022;-78
2023/10/09 12:56:32;;;;;;;13.68;9.15;;;;;;;20.91;100.00;101986.28;5014664;28;20072;-78
2023/10/09 12:58:57;;;;;;;15.23;8.85;;;;;;;20.95;100.00;101974.56;5017764;28;20021;-78
2023/10/09 13:01:23;;;;;;;15.95;8.88;;;;;;;20.94;100.00;101971.06;5006845;28;20094;-78
2023/10/09 13:03:51;;;;;;;14.82;8.18;;;;;;;20.98;100.00;101955.88;5004278;28;20030;-77
2023/10/09 13:06:23;;;;;;;11.57;7.97;;;;;;;21.05;100.00;101959.94;5012338;28;20034;-78
2023/10/09 13:08:49;;;;;;;11.40;8.20;;;;;;;21.21;100.00;101955.56;5008895;28;20025;-78
2023/10/09 13:11:17;;;;;;;11.85;8.05;;;;;;;21.23;100.00;101958.16;5008854;28;20372;-78
2023/10/09 13:13:44;;;;;;;15.70;8.90;;;;;;;21.31;100.00;101960.41;5014140;28;20109;-77
2023/10/09 13:16:23;;;;;;;17.98;9.30;;;;;;;21.30;100.00;101964.00;5015469;28;20033;-78
2023/10/09 13:18:59;;;;;;;16.63;9.70;;;;;;;21.33;100.00;101970.03;5015708;28;20078;-77
2023/10/09 13:21:31;;;;;;;13.85;9.25;;;;;;;21.33;100.00;101959.41;5013043;28;20046;-78
2023/10/09 13:23:57;;;;;;;14.23;8.52;;;;;;;21.28;100.00;101954.31;5008537;28;20029;-77
2023/10/09 13:26:24;;;;;;;17.30;8.20;;;;;;;21.27;100.00;101957.91;5029473;28;20351;-78
2023/10/09 13:28:50;;;;;;;18.17;8.80;;;;;;;21.21;100.00;101955.56;5018812;28;20022;-78
2023/10/09 13:31:17;;;;;;;13.55;8.73;;;;;;;21.31;100.00;101968.38;5036989;28;20044;-78
2023/10/09 13:33:44;;;;;;;15.02;8.38;;;;;;;21.36;100.00;101969.91;5015008;28;20026;-78
2023/10/09 13:36:19;;;;;;;15.00;8.27;;;;;;;21.48;100.00;101971.94;5010131;28;20031;-79
2023/10/09 13:38:48;;;;;;;20.85;8.60;;;;;;;21.41;100.00;101967.84;5011739;28;20037;-79
2023/10/09 13:41:17;;;;;;;15.48;9.15;;;;;;;21.42;100.00;101966.06;5010264;28;20445;-78
2023/10/09 13:43:43;;;;;;;15.63;9.20;;;;;;;21.32;100.00;101957.69;5023991;28;20029;-78
2023/10/09 13:46:13;;;;;;;16.50;8.98;;;;;;;21.27;100.00;101968.53;5042259;28;20034;-78
2023/10/09 13:48:43;;;;;;;14.77;8.82;;;;;;;21.34;100.00;101973.53;5017579;28;20417;-79
2023/10/09 13:51:13;;;;;;;14.70;10.10;;;;;;;21.30;100.00;101964.88;5015947;28;20549;-78
2023/10/09 13:53:45;;;;;;;16.17;10.02;;;;;;;21.25;100.00;101973.06;5017780;28;20033;-78
2023/10/09 13:56:20;;;;;;;14.90;8.48;;;;;;;21.15;100.00;101960.31;5007282;28;20787;-78
2023/10/09 13:58:50;;;;;;;14.48;8.77;;;;;;;21.10;100.00;101963.22;5010878;28;20033;-78
2023/10/09 14:01:28;;;;;;;15.40;9.13;;;;;;;21.27;100.00;101971.19;5020613;28;20021;-78
2023/10/09 14:03:56;;;;;;;15.48;9.23;;;;;;;21.39;100.00;101967.09;5008420;28;20367;-78
2023/10/09 14:06:30;;;;;;;15.00;8.88;;;;;;;21.59;100.00;101971.38;5008167;28;20034;-78
2023/10/09 14:08:56;;;;;;;13.88;7.88;;;;;;;21.60;100.00;101970.41;5021699;28;20029;-79
2023/10/09 14:11:22;;;;;;;14.18;8.32;;;;;;;21.63;100.00;101970.25;5042633;28;20083;-79
2023/10/09 14:13:48;;;;;;;12.68;7.85;;;;;;;21.53;100.00;101978.78;5015940;28;20022;-78
2023/10/09 14:16:23;;;;;;;16.75;8.68;;;;;;;21.46;100.00;101975.59;5007141;28;20479;-78
2023/10/09 14:18:56;;;;;;;20.05;8.20;;;;;;;21.45;100.00;101964.13;5009743;28;20057;-79